Allanton, United Kingdom
Current Conditions -  °F | °C
As of 5:50 PM on Thursday 23 Oct 2014 (Local Time) from EGQM Reporting Station
Clear Clear  
Wind Chill: 57°   Ceiling: Unl
Heat Index: 57°   Visibility: 6mi
Dew Point: 54°   Wind: 17mph
Humidity: 88%   Direction: 220°SW
Pressure: 29.74"   Gusts: NA
Location:  55.78°N, 2.22°W
Report Text: EGQM 231650Z AUTO 22015KT 9999 NCD 14/12 Q1007
Loading
Personal Weather Stations






























Interactive Weather Map
Tropical Storm Tracking
New forecast layout! Learn more

10-Day Weather Forecast

Advertisements
Track Severe Weather on mobile